sensor_id;sensor_type;location;lat;lon;timestamp;P1;durP1;ratioP1;P2;durP2;ratioP2
80926;SDS011;70385;44.538;18.532;2023-11-21T00:01:49;166.90;;;94.43;;
80926;SDS011;70385;44.538;18.532;2023-11-21T00:04:19;166.55;;;92.32;;
80926;SDS011;70385;44.538;18.532;2023-11-21T00:06:51;177.25;;;96.65;;
80926;SDS011;70385;44.538;18.532;2023-11-21T00:09:21;204.23;;;110.95;;
80926;SDS011;70385;44.538;18.532;2023-11-21T00:11:59;214.80;;;113.20;;
80926;SDS011;70385;44.538;18.532;2023-11-21T00:14:27;233.65;;;123.35;;
80926;SDS011;70385;44.538;18.532;2023-11-21T00:16:53;264.20;;;130.13;;
80926;SDS011;70385;44.538;18.532;2023-11-21T00:19:27;242.00;;;127.30;;
80926;SDS011;70385;44.538;18.532;2023-11-21T00:21:57;220.00;;;115.47;;
80926;SDS011;70385;44.538;18.532;2023-11-21T00:24:24;209.70;;;112.75;;
80926;SDS011;70385;44.538;18.532;2023-11-21T00:26:55;215.57;;;110.97;;
80926;SDS011;70385;44.538;18.532;2023-11-21T00:29:24;213.55;;;110.28;;
80926;SDS011;70385;44.538;18.532;2023-11-21T00:31:51;223.32;;;114.78;;
80926;SDS011;70385;44.538;18.532;2023-11-21T00:34:20;224.90;;;113.45;;
80926;SDS011;70385;44.538;18.532;2023-11-21T00:36:47;279.50;;;129.40;;
80926;SDS011;70385;44.538;18.532;2023-11-21T00:39:23;290.83;;;140.35;;
80926;SDS011;70385;44.538;18.532;2023-11-21T00:41:52;318.77;;;145.20;;
80926;SDS011;70385;44.538;18.532;2023-11-21T00:44:18;288.92;;;137.07;;
80926;SDS011;70385;44.538;18.532;2023-11-21T00:46:45;297.52;;;136.52;;
80926;SDS011;70385;44.538;18.532;2023-11-21T00:49:22;280.40;;;130.45;;
80926;SDS011;70385;44.538;18.532;2023-11-21T00:51:56;295.52;;;137.10;;
80926;SDS011;70385;44.538;18.532;2023-11-21T00:54:26;265.08;;;126.53;;
80926;SDS011;70385;44.538;18.532;2023-11-21T00:57:01;233.88;;;116.05;;
80926;SDS011;70385;44.538;18.532;2023-11-21T00:59:30;254.43;;;126.05;;
80926;SDS011;70385;44.538;18.532;2023-11-21T01:02:04;261.35;;;124.72;;
80926;SDS011;70385;44.538;18.532;2023-11-21T01:04:37;248.40;;;122.82;;
80926;SDS011;70385;44.538;18.532;2023-11-21T01:07:05;227.68;;;114.40;;
80926;SDS011;70385;44.538;18.532;2023-11-21T01:09:36;210.40;;;110.50;;
80926;SDS011;70385;44.538;18.532;2023-11-21T01:12:05;199.63;;;102.80;;
80926;SDS011;70385;44.538;18.532;2023-11-21T01:14:35;204.32;;;109.68;;
80926;SDS011;70385;44.538;18.532;2023-11-21T01:17:04;195.15;;;102.97;;
80926;SDS011;70385;44.538;18.532;2023-11-21T01:19:34;202.25;;;102.15;;
80926;SDS011;70385;44.538;18.532;2023-11-21T01:22:05;203.15;;;108.13;;
80926;SDS011;70385;44.538;18.532;2023-11-21T01:24:33;196.00;;;101.75;;
80926;SDS011;70385;44.538;18.532;2023-11-21T01:27:01;200.13;;;108.75;;
80926;SDS011;70385;44.538;18.532;2023-11-21T01:29:37;216.80;;;114.60;;
80926;SDS011;70385;44.538;18.532;2023-11-21T01:32:06;209.95;;;114.38;;
80926;SDS011;70385;44.538;18.532;2023-11-21T01:34:36;221.35;;;115.05;;
80926;SDS011;70385;44.538;18.532;2023-11-21T01:37:08;221.30;;;113.15;;
80926;SDS011;70385;44.538;18.532;2023-11-21T01:39:37;204.48;;;108.57;;
80926;SDS011;70385;44.538;18.532;2023-11-21T01:42:14;227.25;;;115.22;;
80926;SDS011;70385;44.538;18.532;2023-11-21T01:44:40;210.52;;;112.47;;
80926;SDS011;70385;44.538;18.532;2023-11-21T01:47:06;232.45;;;114.78;;
80926;SDS011;70385;44.538;18.532;2023-11-21T01:49:36;228.27;;;116.97;;
80926;SDS011;70385;44.538;18.532;2023-11-21T01:52:06;222.60;;;115.75;;
80926;SDS011;70385;44.538;18.532;2023-11-21T01:54:32;206.25;;;114.65;;
80926;SDS011;70385;44.538;18.532;2023-11-21T01:57:05;219.52;;;116.68;;
80926;SDS011;70385;44.538;18.532;2023-11-21T01:59:36;217.85;;;113.47;;
80926;SDS011;70385;44.538;18.532;2023-11-21T02:02:05;225.48;;;116.13;;
80926;SDS011;70385;44.538;18.532;2023-11-21T02:04:33;217.32;;;108.82;;
80926;SDS011;70385;44.538;18.532;2023-11-21T02:07:04;230.23;;;116.20;;
80926;SDS011;70385;44.538;18.532;2023-11-21T02:09:31;207.43;;;106.05;;
80926;SDS011;70385;44.538;18.532;2023-11-21T02:11:59;220.50;;;117.13;;
80926;SDS011;70385;44.538;18.532;2023-11-21T02:14:30;224.02;;;114.30;;
80926;SDS011;70385;44.538;18.532;2023-11-21T02:16:57;222.85;;;114.13;;
80926;SDS011;70385;44.538;18.532;2023-11-21T02:19:30;195.55;;;106.53;;
80926;SDS011;70385;44.538;18.532;2023-11-21T02:22:02;204.90;;;105.78;;
80926;SDS011;70385;44.538;18.532;2023-11-21T02:24:32;198.80;;;103.93;;
80926;SDS011;70385;44.538;18.532;2023-11-21T02:27:01;217.30;;;106.50;;
80926;SDS011;70385;44.538;18.532;2023-11-21T02:29:29;208.25;;;106.43;;
80926;SDS011;70385;44.538;18.532;2023-11-21T02:31:55;212.50;;;109.60;;
80926;SDS011;70385;44.538;18.532;2023-11-21T02:34:24;182.63;;;97.22;;
80926;SDS011;70385;44.538;18.532;2023-11-21T02:36:54;206.32;;;103.88;;
80926;SDS011;70385;44.538;18.532;2023-11-21T02:39:21;201.98;;;105.57;;
80926;SDS011;70385;44.538;18.532;2023-11-21T02:41:51;187.85;;;97.78;;
80926;SDS011;70385;44.538;18.532;2023-11-21T02:44:21;207.82;;;101.78;;
80926;SDS011;70385;44.538;18.532;2023-11-21T02:46:49;190.57;;;98.30;;
80926;SDS011;70385;44.538;18.532;2023-11-21T02:49:15;181.63;;;94.55;;
80926;SDS011;70385;44.538;18.532;2023-11-21T02:51:43;188.48;;;94.45;;
80926;SDS011;70385;44.538;18.532;2023-11-21T02:54:11;190.60;;;97.43;;
80926;SDS011;70385;44.538;18.532;2023-11-21T02:56:39;196.13;;;100.85;;
80926;SDS011;70385;44.538;18.532;2023-11-21T02:59:07;198.55;;;102.05;;
80926;SDS011;70385;44.538;18.532;2023-11-21T03:01:41;184.32;;;95.53;;
80926;SDS011;70385;44.538;18.532;2023-11-21T03:04:08;172.57;;;90.97;;
80926;SDS011;70385;44.538;18.532;2023-11-21T03:06:34;185.55;;;92.30;;
80926;SDS011;70385;44.538;18.532;2023-11-21T03:09:00;178.10;;;91.88;;
80926;SDS011;70385;44.538;18.532;2023-11-21T03:11:27;170.60;;;88.53;;
80926;SDS011;70385;44.538;18.532;2023-11-21T03:13:56;182.65;;;94.13;;
80926;SDS011;70385;44.538;18.532;2023-11-21T03:16:26;190.27;;;93.20;;
80926;SDS011;70385;44.538;18.532;2023-11-21T03:19:03;180.88;;;90.55;;
80926;SDS011;70385;44.538;18.532;2023-11-21T03:21:29;168.57;;;88.55;;
80926;SDS011;70385;44.538;18.532;2023-11-21T03:23:58;184.70;;;95.65;;
80926;SDS011;70385;44.538;18.532;2023-11-21T03:26:27;175.93;;;90.97;;
80926;SDS011;70385;44.538;18.532;2023-11-21T03:28:53;186.50;;;96.05;;
80926;SDS011;70385;44.538;18.532;2023-11-21T03:31:19;176.02;;;92.18;;
80926;SDS011;70385;44.538;18.532;2023-11-21T03:33:46;169.60;;;89.88;;
80926;SDS011;70385;44.538;18.532;2023-11-21T03:36:19;174.10;;;92.78;;
80926;SDS011;70385;44.538;18.532;2023-11-21T03:38:48;198.13;;;101.05;;
80926;SDS011;70385;44.538;18.532;2023-11-21T03:41:17;165.13;;;86.43;;
80926;SDS011;70385;44.538;18.532;2023-11-21T03:43:46;152.80;;;77.45;;
80926;SDS011;70385;44.538;18.532;2023-11-21T03:46:13;151.98;;;80.55;;
80926;SDS011;70385;44.538;18.532;2023-11-21T03:48:45;157.80;;;83.40;;
80926;SDS011;70385;44.538;18.532;2023-11-21T03:51:11;165.95;;;89.60;;
80926;SDS011;70385;44.538;18.532;2023-11-21T03:53:38;179.18;;;95.63;;
80926;SDS011;70385;44.538;18.532;2023-11-21T03:56:08;187.52;;;99.38;;
80926;SDS011;70385;44.538;18.532;2023-11-21T03:58:37;174.93;;;91.25;;
80926;SDS011;70385;44.538;18.532;2023-11-21T04:01:05;170.05;;;89.10;;
80926;SDS011;70385;44.538;18.532;2023-11-21T04:03:32;162.55;;;90.95;;
80926;SDS011;70385;44.538;18.532;2023-11-21T04:05:58;163.85;;;85.68;;
80926;SDS011;70385;44.538;18.532;2023-11-21T04:08:25;157.57;;;84.75;;
80926;SDS011;70385;44.538;18.532;2023-11-21T04:10:57;162.95;;;83.90;;
80926;SDS011;70385;44.538;18.532;2023-11-21T04:13:26;159.13;;;83.32;;
80926;SDS011;70385;44.538;18.532;2023-11-21T04:15:52;176.77;;;93.88;;
80926;SDS011;70385;44.538;18.532;2023-11-21T04:18:18;189.80;;;97.22;;
80926;SDS011;70385;44.538;18.532;2023-11-21T04:20:44;189.48;;;98.22;;
80926;SDS011;70385;44.538;18.532;2023-11-21T04:23:17;196.25;;;100.15;;
80926;SDS011;70385;44.538;18.532;2023-11-21T04:25:49;191.13;;;99.60;;
80926;SDS011;70385;44.538;18.532;2023-11-21T04:28:16;187.63;;;96.50;;
80926;SDS011;70385;44.538;18.532;2023-11-21T04:30:46;183.35;;;97.22;;
80926;SDS011;70385;44.538;18.532;2023-11-21T04:33:12;195.48;;;102.85;;
80926;SDS011;70385;44.538;18.532;2023-11-21T04:35:38;171.20;;;92.90;;
80926;SDS011;70385;44.538;18.532;2023-11-21T04:38:04;182.30;;;96.40;;
80926;SDS011;70385;44.538;18.532;2023-11-21T04:40:32;196.98;;;100.75;;
80926;SDS011;70385;44.538;18.532;2023-11-21T04:43:02;194.07;;;101.80;;
80926;SDS011;70385;44.538;18.532;2023-11-21T04:45:35;196.82;;;103.78;;
80926;SDS011;70385;44.538;18.532;2023-11-21T04:48:05;166.00;;;93.10;;
80926;SDS011;70385;44.538;18.532;2023-11-21T04:50:32;182.38;;;97.43;;
80926;SDS011;70385;44.538;18.532;2023-11-21T04:53:01;181.98;;;93.93;;
80926;SDS011;70385;44.538;18.532;2023-11-21T04:55:28;167.82;;;91.03;;
80926;SDS011;70385;44.538;18.532;2023-11-21T04:57:56;187.48;;;94.80;;
80926;SDS011;70385;44.538;18.532;2023-11-21T05:00:22;178.38;;;93.28;;
80926;SDS011;70385;44.538;18.532;2023-11-21T05:02:54;162.45;;;95.90;;
80926;SDS011;70385;44.538;18.532;2023-11-21T05:05:21;184.70;;;94.22;;
80926;SDS011;70385;44.538;18.532;2023-11-21T05:07:50;166.35;;;89.80;;
80926;SDS011;70385;44.538;18.532;2023-11-21T05:10:20;188.02;;;98.95;;
80926;SDS011;70385;44.538;18.532;2023-11-21T05:12:49;164.27;;;90.65;;
80926;SDS011;70385;44.538;18.532;2023-11-21T05:15:16;183.50;;;91.63;;
80926;SDS011;70385;44.538;18.532;2023-11-21T05:17:45;181.10;;;95.00;;
80926;SDS011;70385;44.538;18.532;2023-11-21T05:20:15;180.68;;;96.85;;
80926;SDS011;70385;44.538;18.532;2023-11-21T05:22:51;174.80;;;91.68;;
80926;SDS011;70385;44.538;18.532;2023-11-21T05:25:18;181.60;;;94.53;;
80926;SDS011;70385;44.538;18.532;2023-11-21T05:27:49;182.32;;;93.75;;
80926;SDS011;70385;44.538;18.532;2023-11-21T05:30:17;183.05;;;96.38;;
80926;SDS011;70385;44.538;18.532;2023-11-21T05:32:51;185.52;;;99.22;;
80926;SDS011;70385;44.538;18.532;2023-11-21T05:35:20;199.52;;;109.35;;
80926;SDS011;70385;44.538;18.532;2023-11-21T05:37:46;179.50;;;96.82;;
80926;SDS011;70385;44.538;18.532;2023-11-21T05:40:13;196.40;;;102.70;;
80926;SDS011;70385;44.538;18.532;2023-11-21T05:42:41;180.93;;;100.10;;
80926;SDS011;70385;44.538;18.532;2023-11-21T05:45:09;194.48;;;103.32;;
80926;SDS011;70385;44.538;18.532;2023-11-21T05:47:45;169.48;;;92.20;;
80926;SDS011;70385;44.538;18.532;2023-11-21T05:50:15;193.60;;;100.80;;
80926;SDS011;70385;44.538;18.532;2023-11-21T05:52:47;189.63;;;103.20;;
80926;SDS011;70385;44.538;18.532;2023-11-21T05:55:13;186.20;;;98.80;;
80926;SDS011;70385;44.538;18.532;2023-11-21T05:57:42;189.20;;;102.47;;
80926;SDS011;70385;44.538;18.532;2023-11-21T06:00:12;181.65;;;93.85;;
80926;SDS011;70385;44.538;18.532;2023-11-21T06:02:47;243.25;;;120.35;;
80926;SDS011;70385;44.538;18.532;2023-11-21T06:05:21;226.00;;;123.22;;
80926;SDS011;70385;44.538;18.532;2023-11-21T06:07:55;212.40;;;110.20;;
80926;SDS011;70385;44.538;18.532;2023-11-21T06:10:31;213.82;;;109.95;;
80926;SDS011;70385;44.538;18.532;2023-11-21T06:13:26;191.00;;;103.28;;
80926;SDS011;70385;44.538;18.532;2023-11-21T06:16:02;221.40;;;115.38;;
80926;SDS011;70385;44.538;18.532;2023-11-21T06:18:43;205.30;;;107.63;;
80926;SDS011;70385;44.538;18.532;2023-11-21T06:21:09;216.82;;;111.68;;
80926;SDS011;70385;44.538;18.532;2023-11-21T06:23:42;220.60;;;113.07;;
80926;SDS011;70385;44.538;18.532;2023-11-21T06:26:14;229.23;;;119.40;;
80926;SDS011;70385;44.538;18.532;2023-11-21T06:28:58;200.93;;;104.63;;
80926;SDS011;70385;44.538;18.532;2023-11-21T06:31:25;222.00;;;116.72;;
80926;SDS011;70385;44.538;18.532;2023-11-21T06:33:59;247.50;;;126.13;;
80926;SDS011;70385;44.538;18.532;2023-11-21T06:36:30;218.40;;;112.35;;
80926;SDS011;70385;44.538;18.532;2023-11-21T06:39:00;232.30;;;123.60;;
80926;SDS011;70385;44.538;18.532;2023-11-21T06:41:36;228.13;;;122.88;;
80926;SDS011;70385;44.538;18.532;2023-11-21T06:44:04;209.77;;;114.47;;
80926;SDS011;70385;44.538;18.532;2023-11-21T06:46:34;219.82;;;118.60;;
80926;SDS011;70385;44.538;18.532;2023-11-21T06:49:00;215.77;;;113.38;;
80926;SDS011;70385;44.538;18.532;2023-11-21T06:51:27;206.73;;;108.95;;
80926;SDS011;70385;44.538;18.532;2023-11-21T06:54:14;216.93;;;110.28;;
80926;SDS011;70385;44.538;18.532;2023-11-21T06:56:42;220.52;;;116.85;;
80926;SDS011;70385;44.538;18.532;2023-11-21T06:59:13;208.00;;;106.20;;
80926;SDS011;70385;44.538;18.532;2023-11-21T07:01:45;201.15;;;109.22;;
80926;SDS011;70385;44.538;18.532;2023-11-21T07:04:15;225.77;;;119.35;;
80926;SDS011;70385;44.538;18.532;2023-11-21T07:06:42;265.25;;;132.88;;
80926;SDS011;70385;44.538;18.532;2023-11-21T07:09:11;253.88;;;129.13;;
80926;SDS011;70385;44.538;18.532;2023-11-21T07:11:41;216.60;;;113.60;;
80926;SDS011;70385;44.538;18.532;2023-11-21T07:14:08;211.57;;;108.72;;
80926;SDS011;70385;44.538;18.532;2023-11-21T07:16:34;179.40;;;98.00;;
80926;SDS011;70385;44.538;18.532;2023-11-21T07:19:07;193.65;;;99.15;;
80926;SDS011;70385;44.538;18.532;2023-11-21T07:21:34;140.57;;;75.40;;
80926;SDS011;70385;44.538;18.532;2023-11-21T07:24:08;163.20;;;85.72;;
80926;SDS011;70385;44.538;18.532;2023-11-21T07:26:36;142.18;;;73.15;;
80926;SDS011;70385;44.538;18.532;2023-11-21T07:29:04;139.82;;;69.95;;
80926;SDS011;70385;44.538;18.532;2023-11-21T07:31:31;135.43;;;73.45;;
80926;SDS011;70385;44.538;18.532;2023-11-21T07:34:07;140.38;;;77.25;;
80926;SDS011;70385;44.538;18.532;2023-11-21T07:36:36;133.15;;;70.32;;
80926;SDS011;70385;44.538;18.532;2023-11-21T07:39:02;164.13;;;86.97;;
80926;SDS011;70385;44.538;18.532;2023-11-21T07:41:33;156.18;;;81.72;;
80926;SDS011;70385;44.538;18.532;2023-11-21T07:44:01;196.05;;;100.10;;
80926;SDS011;70385;44.538;18.532;2023-11-21T07:49:32;149.63;;;77.70;;
80926;SDS011;70385;44.538;18.532;2023-11-21T07:52:04;145.82;;;78.43;;
80926;SDS011;70385;44.538;18.532;2023-11-21T07:54:33;206.35;;;103.75;;
80926;SDS011;70385;44.538;18.532;2023-11-21T07:57:04;240.25;;;128.70;;
80926;SDS011;70385;44.538;18.532;2023-11-21T07:59:34;237.60;;;131.35;;
80926;SDS011;70385;44.538;18.532;2023-11-21T08:02:09;187.45;;;103.45;;
80926;SDS011;70385;44.538;18.532;2023-11-21T08:04:50;240.93;;;130.52;;
80926;SDS011;70385;44.538;18.532;2023-11-21T08:07:19;271.83;;;145.02;;
80926;SDS011;70385;44.538;18.532;2023-11-21T08:09:50;285.30;;;150.48;;
80926;SDS011;70385;44.538;18.532;2023-11-21T08:12:18;271.90;;;140.57;;
80926;SDS011;70385;44.538;18.532;2023-11-21T08:14:47;278.52;;;140.23;;
80926;SDS011;70385;44.538;18.532;2023-11-21T08:17:13;271.77;;;139.43;;
80926;SDS011;70385;44.538;18.532;2023-11-21T08:19:39;295.35;;;144.75;;
80926;SDS011;70385;44.538;18.532;2023-11-21T08:22:17;303.98;;;148.85;;
80926;SDS011;70385;44.538;18.532;2023-11-21T08:24:44;300.85;;;151.48;;
80926;SDS011;70385;44.538;18.532;2023-11-21T08:27:15;267.52;;;138.52;;
80926;SDS011;70385;44.538;18.532;2023-11-21T08:29:43;262.70;;;134.57;;
80926;SDS011;70385;44.538;18.532;2023-11-21T08:32:14;272.95;;;133.38;;
80926;SDS011;70385;44.538;18.532;2023-11-21T08:34:40;246.75;;;128.02;;
80926;SDS011;70385;44.538;18.532;2023-11-21T08:37:10;255.88;;;123.20;;
80926;SDS011;70385;44.538;18.532;2023-11-21T08:39:36;268.77;;;135.95;;
80926;SDS011;70385;44.538;18.532;2023-11-21T08:42:06;281.77;;;140.65;;
80926;SDS011;70385;44.538;18.532;2023-11-21T08:44:47;300.02;;;143.02;;
80926;SDS011;70385;44.538;18.532;2023-11-21T08:47:46;358.75;;;163.20;;
80926;SDS011;70385;44.538;18.532;2023-11-21T08:50:14;337.60;;;157.55;;
80926;SDS011;70385;44.538;18.532;2023-11-21T08:52:44;327.17;;;155.65;;
80926;SDS011;70385;44.538;18.532;2023-11-21T08:55:21;335.60;;;161.40;;
80926;SDS011;70385;44.538;18.532;2023-11-21T08:57:55;382.23;;;177.10;;
80926;SDS011;70385;44.538;18.532;2023-11-21T09:00:29;408.83;;;190.85;;
80926;SDS011;70385;44.538;18.532;2023-11-21T09:02:57;354.52;;;173.50;;
80926;SDS011;70385;44.538;18.532;2023-11-21T09:05:27;379.50;;;178.38;;
80926;SDS011;70385;44.538;18.532;2023-11-21T09:07:57;362.30;;;166.05;;
80926;SDS011;70385;44.538;18.532;2023-11-21T09:10:25;325.58;;;159.52;;
80926;SDS011;70385;44.538;18.532;2023-11-21T09:12:57;312.17;;;152.00;;
80926;SDS011;70385;44.538;18.532;2023-11-21T09:22:49;274.52;;;140.27;;
80926;SDS011;70385;44.538;18.532;2023-11-21T09:25:16;269.67;;;139.05;;
80926;SDS011;70385;44.538;18.532;2023-11-21T09:27:50;258.38;;;125.63;;
80926;SDS011;70385;44.538;18.532;2023-11-21T09:30:18;244.18;;;121.78;;
80926;SDS011;70385;44.538;18.532;2023-11-21T09:32:47;241.85;;;127.75;;
80926;SDS011;70385;44.538;18.532;2023-11-21T09:35:13;257.05;;;126.10;;
80926;SDS011;70385;44.538;18.532;2023-11-21T09:37:40;272.63;;;133.70;;
80926;SDS011;70385;44.538;18.532;2023-11-21T09:40:11;245.75;;;126.30;;
80926;SDS011;70385;44.538;18.532;2023-11-21T09:42:40;225.48;;;111.90;;
80926;SDS011;70385;44.538;18.532;2023-11-21T09:48:56;178.32;;;94.03;;
80926;SDS011;70385;44.538;18.532;2023-11-21T09:51:30;140.20;;;74.55;;
80926;SDS011;70385;44.538;18.532;2023-11-21T09:54:03;89.78;;;55.75;;
80926;SDS011;70385;44.538;18.532;2023-11-21T09:56:41;86.18;;;50.70;;
80926;SDS011;70385;44.538;18.532;2023-11-21T10:02:15;79.75;;;47.75;;
80926;SDS011;70385;44.538;18.532;2023-11-21T10:04:46;69.20;;;42.63;;
80926;SDS011;70385;44.538;18.532;2023-11-21T10:07:25;62.78;;;37.17;;
80926;SDS011;70385;44.538;18.532;2023-11-21T10:13:25;63.22;;;38.00;;
80926;SDS011;70385;44.538;18.532;2023-11-21T10:16:00;63.83;;;38.03;;
80926;SDS011;70385;44.538;18.532;2023-11-21T10:18:34;68.97;;;43.42;;
80926;SDS011;70385;44.538;18.532;2023-11-21T10:21:06;62.35;;;35.95;;
80926;SDS011;70385;44.538;18.532;2023-11-21T10:23:41;49.60;;;31.35;;
80926;SDS011;70385;44.538;18.532;2023-11-21T10:26:11;49.70;;;32.33;;
80926;SDS011;70385;44.538;18.532;2023-11-21T10:29:00;49.42;;;31.00;;
80926;SDS011;70385;44.538;18.532;2023-11-21T10:31:33;42.95;;;27.90;;
80926;SDS011;70385;44.538;18.532;2023-11-21T10:37:29;90.30;;;57.35;;
80926;SDS011;70385;44.538;18.532;2023-11-21T10:40:11;104.88;;;59.92;;
80926;SDS011;70385;44.538;18.532;2023-11-21T10:42:39;98.72;;;54.70;;
80926;SDS011;70385;44.538;18.532;2023-11-21T10:45:17;87.38;;;47.20;;
80926;SDS011;70385;44.538;18.532;2023-11-21T10:47:53;72.93;;;40.17;;
80926;SDS011;70385;44.538;18.532;2023-11-21T10:50:23;75.28;;;39.08;;
80926;SDS011;70385;44.538;18.532;2023-11-21T10:52:51;75.68;;;44.85;;
80926;SDS011;70385;44.538;18.532;2023-11-21T10:55:23;106.82;;;55.78;;
80926;SDS011;70385;44.538;18.532;2023-11-21T10:57:53;199.93;;;86.63;;
80926;SDS011;70385;44.538;18.532;2023-11-21T11:00:26;200.38;;;88.38;;
80926;SDS011;70385;44.538;18.532;2023-11-21T11:02:56;150.10;;;73.50;;
80926;SDS011;70385;44.538;18.532;2023-11-21T11:05:35;115.00;;;58.03;;
80926;SDS011;70385;44.538;18.532;2023-11-21T11:08:07;155.57;;;76.73;;
80926;SDS011;70385;44.538;18.532;2023-11-21T11:10:50;120.90;;;63.63;;
80926;SDS011;70385;44.538;18.532;2023-11-21T11:13:18;92.68;;;53.95;;
80926;SDS011;70385;44.538;18.532;2023-11-21T11:15:48;109.78;;;58.45;;
80926;SDS011;70385;44.538;18.532;2023-11-21T11:18:16;81.55;;;48.90;;
80926;SDS011;70385;44.538;18.532;2023-11-21T11:20:44;82.60;;;47.60;;
80926;SDS011;70385;44.538;18.532;2023-11-21T11:32:10;55.55;;;34.97;;
80926;SDS011;70385;44.538;18.532;2023-11-21T11:37:30;66.88;;;41.75;;
80926;SDS011;70385;44.538;18.532;2023-11-21T11:39:57;70.57;;;42.45;;
80926;SDS011;70385;44.538;18.532;2023-11-21T11:42:27;60.03;;;39.80;;
80926;SDS011;70385;44.538;18.532;2023-11-21T11:44:56;59.85;;;35.65;;
80926;SDS011;70385;44.538;18.532;2023-11-21T11:47:27;53.40;;;34.65;;
80926;SDS011;70385;44.538;18.532;2023-11-21T11:50:11;55.90;;;35.40;;
80926;SDS011;70385;44.538;18.532;2023-11-21T11:52:50;63.15;;;35.75;;
80926;SDS011;70385;44.538;18.532;2023-11-21T11:56:26;66.20;;;36.65;;
80926;SDS011;70385;44.538;18.532;2023-11-21T11:59:05;58.92;;;34.40;;
80926;SDS011;70385;44.538;18.532;2023-11-21T12:01:38;39.97;;;25.75;;
80926;SDS011;70385;44.538;18.532;2023-11-21T12:07:00;31.67;;;21.42;;
80926;SDS011;70385;44.538;18.532;2023-11-21T12:09:35;31.58;;;20.33;;
80926;SDS011;70385;44.538;18.532;2023-11-21T12:12:13;28.52;;;19.75;;
80926;SDS011;70385;44.538;18.532;2023-11-21T12:14:39;29.80;;;18.42;;
80926;SDS011;70385;44.538;18.532;2023-11-21T12:17:06;21.42;;;16.58;;
80926;SDS011;70385;44.538;18.532;2023-11-21T12:19:34;25.00;;;15.95;;
80926;SDS011;70385;44.538;18.532;2023-11-21T12:22:18;22.88;;;16.35;;
80926;SDS011;70385;44.538;18.532;2023-11-21T12:24:51;21.73;;;16.75;;
80926;SDS011;70385;44.538;18.532;2023-11-21T12:27:17;28.13;;;18.23;;
80926;SDS011;70385;44.538;18.532;2023-11-21T12:29:44;23.73;;;16.13;;
80926;SDS011;70385;44.538;18.532;2023-11-21T12:32:11;23.67;;;17.98;;
80926;SDS011;70385;44.538;18.532;2023-11-21T12:34:42;30.63;;;20.27;;
80926;SDS011;70385;44.538;18.532;2023-11-21T12:37:09;38.00;;;24.85;;
80926;SDS011;70385;44.538;18.532;2023-11-21T12:39:44;48.58;;;30.77;;
80926;SDS011;70385;44.538;18.532;2023-11-21T12:42:19;64.75;;;37.95;;
80926;SDS011;70385;44.538;18.532;2023-11-21T12:44:47;85.82;;;46.60;;
80926;SDS011;70385;44.538;18.532;2023-11-21T12:47:16;77.57;;;44.00;;
80926;SDS011;70385;44.538;18.532;2023-11-21T12:49:59;72.65;;;40.42;;
80926;SDS011;70385;44.538;18.532;2023-11-21T12:52:32;77.85;;;42.83;;
80926;SDS011;70385;44.538;18.532;2023-11-21T12:55:01;107.60;;;55.97;;
80926;SDS011;70385;44.538;18.532;2023-11-21T12:57:31;106.43;;;55.25;;
80926;SDS011;70385;44.538;18.532;2023-11-21T13:00:15;132.27;;;68.68;;
80926;SDS011;70385;44.538;18.532;2023-11-21T13:03:00;130.60;;;69.13;;
80926;SDS011;70385;44.538;18.532;2023-11-21T13:05:29;97.28;;;55.53;;
80926;SDS011;70385;44.538;18.532;2023-11-21T13:08:10;108.07;;;58.50;;
80926;SDS011;70385;44.538;18.532;2023-11-21T13:10:44;80.10;;;43.63;;
80926;SDS011;70385;44.538;18.532;2023-11-21T13:13:15;113.60;;;58.10;;
80926;SDS011;70385;44.538;18.532;2023-11-21T13:15:52;101.32;;;49.08;;
80926;SDS011;70385;44.538;18.532;2023-11-21T13:18:25;93.85;;;45.00;;
80926;SDS011;70385;44.538;18.532;2023-11-21T13:20:55;85.63;;;43.80;;
80926;SDS011;70385;44.538;18.532;2023-11-21T13:23:25;73.38;;;42.42;;
80926;SDS011;70385;44.538;18.532;2023-11-21T13:25:58;75.28;;;39.13;;
80926;SDS011;70385;44.538;18.532;2023-11-21T13:28:42;60.45;;;35.53;;
80926;SDS011;70385;44.538;18.532;2023-11-21T13:31:37;61.10;;;34.45;;
80926;SDS011;70385;44.538;18.532;2023-11-21T13:34:15;62.08;;;33.00;;
80926;SDS011;70385;44.538;18.532;2023-11-21T13:36:54;56.40;;;32.00;;
80926;SDS011;70385;44.538;18.532;2023-11-21T13:42:06;57.35;;;31.25;;
80926;SDS011;70385;44.538;18.532;2023-11-21T13:48:27;82.78;;;45.88;;
80926;SDS011;70385;44.538;18.532;2023-11-21T13:51:20;75.28;;;40.53;;
80926;SDS011;70385;44.538;18.532;2023-11-21T13:54:11;74.25;;;45.95;;
80926;SDS011;70385;44.538;18.532;2023-11-21T13:56:42;109.80;;;58.30;;
80926;SDS011;70385;44.538;18.532;2023-11-21T13:59:19;106.32;;;55.22;;
80926;SDS011;70385;44.538;18.532;2023-11-21T14:01:57;109.95;;;57.03;;
80926;SDS011;70385;44.538;18.532;2023-11-21T14:04:41;105.57;;;53.72;;
80926;SDS011;70385;44.538;18.532;2023-11-21T14:07:27;110.68;;;54.78;;
80926;SDS011;70385;44.538;18.532;2023-11-21T14:10:20;121.85;;;63.72;;
80926;SDS011;70385;44.538;18.532;2023-11-21T14:12:53;126.97;;;63.60;;
80926;SDS011;70385;44.538;18.532;2023-11-21T14:15:38;94.88;;;52.22;;
80926;SDS011;70385;44.538;18.532;2023-11-21T14:18:12;96.97;;;51.25;;
80926;SDS011;70385;44.538;18.532;2023-11-21T14:20:49;99.40;;;49.92;;
80926;SDS011;70385;44.538;18.532;2023-11-21T14:23:19;95.60;;;51.17;;
80926;SDS011;70385;44.538;18.532;2023-11-21T14:26:03;79.72;;;41.55;;
80926;SDS011;70385;44.538;18.532;2023-11-21T14:28:38;68.65;;;35.40;;
80926;SDS011;70385;44.538;18.532;2023-11-21T14:31:08;81.97;;;43.80;;
80926;SDS011;70385;44.538;18.532;2023-11-21T14:33:48;76.50;;;42.60;;
80926;SDS011;70385;44.538;18.532;2023-11-21T14:36:20;94.30;;;45.72;;
80926;SDS011;70385;44.538;18.532;2023-11-21T14:38:56;72.45;;;40.50;;
80926;SDS011;70385;44.538;18.532;2023-11-21T14:41:59;86.40;;;46.17;;
80926;SDS011;70385;44.538;18.532;2023-11-21T14:44:35;81.20;;;45.13;;
80926;SDS011;70385;44.538;18.532;2023-11-21T14:47:26;80.95;;;41.40;;
80926;SDS011;70385;44.538;18.532;2023-11-21T14:50:58;77.40;;;39.95;;
80926;SDS011;70385;44.538;18.532;2023-11-21T14:54:02;94.07;;;47.13;;
80926;SDS011;70385;44.538;18.532;2023-11-21T14:56:38;93.53;;;48.20;;
80926;SDS011;70385;44.538;18.532;2023-11-21T14:59:12;91.50;;;48.15;;
80926;SDS011;70385;44.538;18.532;2023-11-21T15:01:53;77.60;;;40.20;;
80926;SDS011;70385;44.538;18.532;2023-11-21T15:04:32;86.82;;;45.22;;
80926;SDS011;70385;44.538;18.532;2023-11-21T15:07:07;109.40;;;55.42;;